Time;durP1;ratioP1;P1;durP2;ratioP2;P2;SDS_P1;SDS_P2;PMS_P1;PMS_P2;Temp;Humidity;BMP_temperature;BMP_pressure;BME280_temperature;BME280_humidity;BME280_pressure;Samples;Min_cycle;Max_cycle;Signal;HPM_P1;HPM_P2
2022/07/21 06:32:33;;;;;;;13.00;11.90;;;20.50;99.90;;;;;;4967817;28;20570;-91
2022/07/21 06:35:01;;;;;;;13.10;11.90;;;20.80;99.90;;;;;;4975327;28;20774;-93
2022/07/21 06:37:26;;;;;;;12.20;11.10;;;21.60;99.90;;;;;;4962086;28;20356;-94
2022/07/21 06:39:52;;;;;;;13.10;12.07;;;21.30;99.90;;;;;;4972022;28;20546;-93
2022/07/21 06:42:19;;;;;;;13.80;12.60;;;20.90;99.90;;;;;;4950540;28;23169;-91
2022/07/21 06:44:44;;;;;;;13.33;12.20;;;21.00;99.90;;;;;;4961861;28;20189;-91
2022/07/21 06:47:10;;;;;;;13.90;12.70;;;21.10;99.90;;;;;;4961009;28;20445;-91
2022/07/21 06:49:36;;;;;;;12.43;11.43;;;21.20;99.90;;;;;;4978447;28;20312;-91
2022/07/21 06:52:05;;;;;;;13.27;12.07;;;21.10;99.90;;;;;;4975577;28;20177;-96
2022/07/21 06:54:32;;;;;;;12.77;11.70;;;21.40;99.90;;;;;;4976315;28;20608;-93
2022/07/21 06:56:58;;;;;;;13.33;12.20;;;22.80;99.90;;;;;;4971731;28;20437;-91
2022/07/21 06:59:24;;;;;;;11.90;10.90;;;21.50;99.90;;;;;;4967513;28;20655;-90
2022/07/21 07:01:49;;;;;;;10.80;10.00;;;22.30;99.90;;;;;;4957425;28;25266;-89
2022/07/21 07:04:21;;;;;;;12.83;11.83;;;22.00;99.90;;;;;;4952571;28;20434;-91
2022/07/21 07:06:51;;;;;;;12.20;11.20;;;21.60;99.90;;;;;;4973647;28;20209;-92
2022/07/21 07:09:17;;;;;;;12.10;11.20;;;21.00;99.90;;;;;;4989763;28;20432;-91
2022/07/21 07:11:43;;;;;;;12.47;11.57;;;21.20;99.90;;;;;;4990964;28;20565;-92
2022/07/21 07:14:08;;;;;;;11.50;10.60;;;21.10;99.90;;;;;;4982226;28;20183;-92
2022/07/21 07:16:34;;;;;;;12.83;11.83;;;21.30;99.90;;;;;;4978934;28;20181;-91
2022/07/21 07:18:59;;;;;;;12.33;11.33;;;21.40;99.90;;;;;;4978008;28;20209;-91
2022/07/21 07:21:25;;;;;;;12.47;10.90;;;21.70;99.90;;;;;;4980666;28;20616;-91
2022/07/21 07:23:51;;;;;;;10.77;9.97;;;22.10;99.90;;;;;;4979978;28;21055;-90
2022/07/21 07:26:16;;;;;;;11.00;10.10;;;22.10;99.90;;;;;;4998063;28;20210;-89
2022/07/21 07:28:42;;;;;;;11.50;10.47;;;21.90;99.90;;;;;;4972460;28;20225;-89
2022/07/21 07:31:07;;;;;;;10.90;10.00;;;21.80;99.90;;;;;;4968510;28;20240;-90
2022/07/21 07:33:33;;;;;;;11.83;10.87;;;22.00;99.90;;;;;;4986076;28;20192;-91
2022/07/21 07:35:59;;;;;;;10.30;9.50;;;22.10;99.90;;;;;;4994571;28;20289;-92
2022/07/21 07:38:25;;;;;;;13.13;11.80;;;22.40;99.90;;;;;;4974167;28;21110;-90
2022/07/21 07:40:50;;;;;;;12.10;10.90;;;22.60;99.90;;;;;;4965579;28;20185;-89
2022/07/21 07:43:16;;;;;;;11.70;10.77;;;22.50;99.90;;;;;;4964137;28;20301;-93
2022/07/21 07:45:42;;;;;;;12.27;11.27;;;22.50;99.90;;;;;;4968734;28;20445;-95
2022/07/21 07:48:10;;;;;;;11.30;10.40;;;22.40;99.90;;;;;;4968456;28;20320;-91
2022/07/21 07:50:38;;;;;;;9.83;9.10;;;22.80;99.90;;;;;;4972988;28;22069;-91
2022/07/21 07:53:04;;;;;;;10.40;9.60;;;23.00;99.90;;;;;;4972318;28;20437;-91
2022/07/21 07:55:47;;;;;;;11.87;10.97;;;23.20;99.90;;;;;;4969798;28;20449;-90
2022/07/21 07:58:13;;;;;;;12.30;10.97;;;22.40;99.90;;;;;;4974322;28;20279;-91
2022/07/21 08:00:39;;;;;;;11.03;10.17;;;22.80;99.90;;;;;;4965181;28;20448;-91
2022/07/21 08:03:05;;;;;;;11.67;10.50;;;22.70;99.90;;;;;;4962057;28;20553;-92
2022/07/21 08:06:16;;;;;;;10.23;9.43;;;22.80;99.90;;;;;;4958484;28;20912;-91
2022/07/21 08:08:44;;;;;;;10.60;9.80;;;23.20;99.90;;;;;;4962127;28;21017;-90
2022/07/21 08:11:19;;;;;;;9.70;8.87;;;23.50;99.90;;;;;;4974886;28;20500;-90
2022/07/21 08:13:45;;;;;;;10.57;9.53;;;23.70;99.90;;;;;;4966270;28;20463;-90
2022/07/21 08:16:12;;;;;;;10.63;9.87;;;23.50;99.90;;;;;;4970782;28;20445;-90
2022/07/21 08:18:46;;;;;;;10.70;9.80;;;23.60;99.90;;;;;;4964897;28;20299;-89
2022/07/21 08:21:12;;;;;;;9.47;8.73;;;24.10;99.90;;;;;;4971937;28;20447;-90
2022/07/21 08:23:37;;;;;;;10.00;9.23;;;24.00;99.90;;;;;;4964149;28;20448;-89
2022/07/21 08:26:09;;;;;;;11.23;10.30;;;23.60;99.90;;;;;;4957076;28;20658;-89
2022/07/21 08:28:34;;;;;;;10.37;9.57;;;23.40;99.90;;;;;;4957662;28;20185;-92
2022/07/21 08:31:00;;;;;;;9.70;9.00;;;22.70;99.90;;;;;;4979639;28;21105;-91
2022/07/21 08:33:25;;;;;;;9.93;9.13;;;22.50;99.90;;;;;;4966386;28;21445;-91
2022/07/21 08:35:51;;;;;;;8.77;8.07;;;23.00;99.90;;;;;;5000225;28;20185;-91
2022/07/21 08:41:08;;;;;;;9.13;8.33;;;22.30;99.90;;;;;;4968400;28;20637;-86
2022/07/21 08:43:37;;;;;;;9.00;8.20;;;23.50;99.90;;;;;;4961852;28;20444;-94
2022/07/21 08:46:12;;;;;;;8.43;7.80;;;23.80;99.90;;;;;;4971560;28;20515;-94
2022/07/21 08:48:42;;;;;;;8.10;7.50;;;25.30;99.90;;;;;;4970584;28;20532;-91
2022/07/21 08:51:15;;;;;;;8.80;8.20;;;25.30;99.90;;;;;;4970369;28;20488;-95
2022/07/21 08:53:51;;;;;;;10.00;8.83;;;24.40;99.90;;;;;;4972080;28;20440;-93
2022/07/21 08:56:24;;;;;;;8.80;8.17;;;24.60;99.90;;;;;;4969850;28;20506;-93
2022/07/21 08:58:56;;;;;;;8.60;7.93;;;25.40;99.90;;;;;;4976498;28;20530;-93
2022/07/21 09:01:33;;;;;;;8.70;8.03;;;26.20;99.90;;;;;;4975055;28;20958;-94
2022/07/21 09:04:28;;;;;;;8.30;7.70;;;24.10;99.90;;;;;;4970447;28;20485;-93
2022/07/21 09:07:13;;;;;;;8.70;8.00;;;24.90;99.90;;;;;;4968138;28;20491;-95
2022/07/21 09:10:08;;;;;;;9.77;9.07;;;24.60;99.90;;;;;;4968268;28;20456;-93
2022/07/21 09:13:06;;;;;;;10.07;9.27;;;24.40;99.90;;;;;;4958527;28;20452;-93
2022/07/21 09:15:36;;;;;;;9.43;8.63;;;23.90;99.90;;;;;;4970803;28;20477;-93
2022/07/21 09:18:27;;;;;;;9.70;8.90;;;24.50;99.90;;;;;;4970394;28;20507;-94
2022/07/21 09:20:58;;;;;;;9.67;8.10;;;24.20;99.90;;;;;;4975980;28;20993;-93
2022/07/21 09:23:24;;;;;;;9.40;8.70;;;23.90;99.90;;;;;;4964195;28;20441;-93
2022/07/21 09:25:51;;;;;;;8.70;8.00;;;24.30;99.90;;;;;;4967504;28;20452;-93
2022/07/21 09:28:23;;;;;;;8.90;8.20;;;24.50;99.90;;;;;;4980285;28;20181;-91
2022/07/21 09:31:13;;;;;;;9.57;8.73;;;24.00;99.90;;;;;;4965435;28;20484;-93
2022/07/21 09:33:44;;;;;;;10.27;9.47;;;24.20;99.90;;;;;;4971311;28;20483;-93
2022/07/21 09:36:16;;;;;;;10.10;9.00;;;23.90;99.90;;;;;;4966684;28;20499;-94
2022/07/21 09:39:03;;;;;;;9.87;9.17;;;24.20;99.90;;;;;;4970595;28;20528;-94
2022/07/21 09:41:35;;;;;;;9.10;8.40;;;23.00;99.90;;;;;;4976088;28;20440;-92
2022/07/21 09:44:02;;;;;;;9.60;8.90;;;23.30;99.90;;;;;;4958762;28;21459;-93
2022/07/21 09:46:45;;;;;;;10.77;9.90;;;23.70;99.90;;;;;;4964605;28;20950;-95
2022/07/21 09:49:13;;;;;;;9.63;8.83;;;24.80;99.90;;;;;;4963076;28;20465;-94
2022/07/21 09:54:25;;;;;;;9.83;8.93;;;23.60;99.90;;;;;;4970547;28;20850;-91
2022/07/21 09:56:59;;;;;;;10.20;9.30;;;23.40;99.90;;;;;;4962511;28;20529;-92
2022/07/21 09:59:25;;;;;;;9.53;8.83;;;23.40;99.90;;;;;;4961081;28;20189;-92
2022/07/21 10:01:51;;;;;;;9.93;8.87;;;23.50;99.90;;;;;;4961367;28;21010;-89
2022/07/21 10:04:21;;;;;;;9.60;8.70;;;24.10;99.90;;;;;;4975000;28;20206;-91
2022/07/21 10:06:47;;;;;;;8.67;7.77;;;24.70;99.90;;;;;;4976523;28;20798;-91
2022/07/21 10:09:13;;;;;;;10.60;7.83;;;25.40;99.90;;;;;;4965133;28;20441;-90
2022/07/21 10:11:41;;;;;;;7.90;7.30;;;25.30;99.90;;;;;;4966675;28;20332;-93
2022/07/21 10:14:10;;;;;;;8.13;7.43;;;25.60;99.90;;;;;;4963157;28;21563;-91
2022/07/21 10:16:36;;;;;;;8.23;7.63;;;26.00;99.90;;;;;;4965754;28;21986;-92
2022/07/21 10:19:12;;;;;;;7.43;7.00;;;26.50;99.90;;;;;;4975595;28;20433;-91
2022/07/21 10:22:14;;;;;;;8.23;7.53;;;25.50;99.90;;;;;;4973344;28;20189;-93
2022/07/21 10:24:40;;;;;;;8.17;7.43;;;25.70;99.90;;;;;;4969901;28;20555;-92
2022/07/21 10:27:11;;;;;;;8.27;7.53;;;25.30;99.90;;;;;;4965529;28;21967;-91
2022/07/21 10:29:54;;;;;;;8.00;7.30;;;25.60;99.90;;;;;;4970978;28;20471;-92
2022/07/21 10:32:27;;;;;;;7.70;7.10;;;25.70;99.90;;;;;;4965778;28;20649;-91
2022/07/21 10:34:57;;;;;;;6.90;6.30;;;25.70;99.90;;;;;;4973232;28;20667;-94
2022/07/21 10:37:41;;;;;;;6.67;6.07;;;25.70;99.90;;;;;;4976558;28;20444;-93
2022/07/21 10:40:54;;;;;;;7.70;7.00;;;25.50;99.90;;;;;;4983226;28;20436;-95
2022/07/21 10:44:01;;;;;;;7.50;6.80;;;25.70;99.90;;;;;;5002386;28;20495;-93
2022/07/21 10:47:04;;;;;;;8.37;7.77;;;26.30;99.90;;;;;;4976213;28;20453;-94
2022/07/21 10:50:29;;;;;;;7.43;6.80;;;27.00;99.90;;;;;;4996225;28;20479;-96
2022/07/21 11:19:22;;;;;;;7.63;7.03;;;27.10;99.50;;;;;;4986028;28;20477;-96
2022/07/21 11:21:48;;;;;;;7.80;7.20;;;28.20;99.80;;;;;;4992207;28;20465;-96
2022/07/21 11:24:19;;;;;;;7.37;6.77;;;28.20;99.40;;;;;;4994674;28;20784;-93
2022/07/21 11:27:23;;;;;;;8.00;7.40;;;28.60;98.70;;;;;;5001014;28;20648;-96
2022/07/21 12:40:32;;;;;;;5.80;5.40;;;27.30;95.60;;;;;;4973323;28;20480;-95
2022/07/21 12:43:05;;;;;;;6.63;6.13;;;28.10;94.40;;;;;;4971820;28;20748;-89
2022/07/21 12:45:31;;;;;;;6.53;6.13;;;26.50;94.30;;;;;;4977292;28;20448;-96
2022/07/21 12:48:09;;;;;;;6.00;5.50;;;27.20;94.20;;;;;;4981366;28;20437;-96
2022/07/21 12:50:38;;;;;;;6.73;6.00;;;27.80;93.80;;;;;;4974108;28;20213;-92
2022/07/21 12:53:13;;;;;;;5.47;5.07;;;29.00;92.90;;;;;;4977348;28;20436;-96
2022/07/21 12:55:39;;;;;;;5.30;4.90;;;28.90;91.60;;;;;;4987470;28;20428;-93
2022/07/21 12:58:05;;;;;;;5.87;5.43;;;28.30;93.40;;;;;;4988583;28;20467;-94
2022/07/21 13:00:31;;;;;;;5.67;5.27;;;28.70;93.40;;;;;;4986298;28;20481;-94
2022/07/21 13:03:03;;;;;;;74.40;68.77;;;29.50;93.70;;;;;;4973219;28;20189;-90
2022/07/21 13:05:28;;;;;;;5.50;5.00;;;29.40;94.70;;;;;;4971693;28;20665;-94
2022/07/21 13:07:54;;;;;;;5.53;5.13;;;29.30;92.50;;;;;;4971698;28;20788;-94
2022/07/21 13:10:20;;;;;;;5.53;5.10;;;28.20;91.90;;;;;;4960821;28;20250;-95
2022/07/21 13:12:46;;;;;;;5.93;5.50;;;27.70;91.60;;;;;;4965790;28;20692;-92
2022/07/21 13:15:12;;;;;;;5.57;5.17;;;27.70;91.80;;;;;;4964590;28;20449;-95
2022/07/21 13:17:37;;;;;;;5.20;4.87;;;27.50;92.10;;;;;;4964990;28;21222;-95
2022/07/21 13:20:03;;;;;;;5.30;4.90;;;27.60;91.40;;;;;;4981709;28;21265;-95
2022/07/21 13:22:29;;;;;;;5.63;5.10;;;28.10;91.90;;;;;;4976899;28;20324;-95
2022/07/21 13:32:44;;;;;;;5.13;4.70;;;29.50;87.30;;;;;;5171896;23;20471;-93
2022/07/21 13:35:18;;;;;;;4.70;4.40;;;31.00;90.20;;;;;;5715919;23;20495;-90
2022/07/21 13:37:44;;;;;;;4.57;4.20;;;30.70;87.10;;;;;;5430710;23;20547;-96
2022/07/21 13:40:10;;;;;;;4.77;4.40;;;31.10;90.30;;;;;;5230312;23;20815;-96
2022/07/21 13:42:36;;;;;;;7.17;6.70;;;32.20;82.30;;;;;;4954339;28;20282;-92
2022/07/21 13:45:02;;;;;;;7.13;6.40;;;30.90;90.20;;;;;;4920476;28;20585;-94
2022/07/21 13:47:27;;;;;;;7.43;6.80;;;29.90;92.80;;;;;;4920042;28;20203;-93
2022/07/21 13:49:53;;;;;;;7.47;6.97;;;29.80;92.90;;;;;;4923684;28;20207;-94
2022/07/21 13:52:18;;;;;;;7.27;6.77;;;30.20;93.70;;;;;;4919642;28;20487;-93
2022/07/21 13:54:44;;;;;;;8.00;7.40;;;30.90;93.00;;;;;;4925844;28;20203;-94
2022/07/21 13:57:09;;;;;;;7.00;6.60;;;31.20;92.50;;;;;;4916466;28;20191;-93
2022/07/21 13:59:35;;;;;;;7.67;7.00;;;32.00;92.00;;;;;;4921527;28;20684;-93
2022/07/21 14:02:01;;;;;;;7.40;6.80;;;33.00;90.80;;;;;;4936687;28;20277;-93
2022/07/21 14:04:26;;;;;;;7.20;6.60;;;34.50;87.60;;;;;;4936879;28;20191;-93
2022/07/21 14:06:52;;;;;;;7.30;6.70;;;35.10;91.60;;;;;;4919817;28;23957;-93
2022/07/21 14:09:18;;;;;;;7.07;6.37;;;;;;;;;;4922606;28;22696;-92
2022/07/21 14:11:45;;;;;;;6.90;6.40;;;;;;;;;;4924075;28;20218;-94
2022/07/21 14:14:16;;;;;;;7.50;7.00;;;;;;;;;;4921791;28;20457;-94
2022/07/21 14:16:42;;;;;;;7.63;7.07;;;;;;;;;;4923926;28;20562;-94
2022/07/21 14:19:08;;;;;;;6.90;6.40;;;;;;;;;;4920154;28;20472;-93
2022/07/21 14:21:34;;;;;;;6.97;6.37;;;;;;;;;;4929627;28;20968;-94
2022/07/21 14:26:45;;;;;;;7.30;6.80;;;;;;;;;;4933759;28;20213;-94
2022/07/21 14:29:11;;;;;;;7.35;6.80;;;;;;;;;;4920189;28;20274;-92
2022/07/21 14:31:37;;;;;;;7.15;6.65;;;;;;;;;;4926261;28;20229;-94
2022/07/21 14:34:03;;;;;;;6.72;6.22;;;;;;;;;;4917467;28;20614;-94
2022/07/21 14:36:29;;;;;;;6.83;6.33;;;;;;;;;;4922547;28;20317;-93
2022/07/21 14:38:54;;;;;;;7.20;6.80;;;36.90;83.80;;;;;;4919305;28;20183;-93
2022/07/21 14:41:20;;;;;;;7.10;6.60;;;;;;;;;;4927963;28;20282;-93
2022/07/21 14:43:48;;;;;;;7.33;6.73;;;;;;;;;;4928850;28;20559;-93
2022/07/21 14:46:14;;;;;;;7.03;6.63;;;;;;;;;;4918190;28;20186;-94
2022/07/21 14:48:40;;;;;;;7.00;6.55;;;;;;;;;;4933420;28;20234;-94
2022/07/21 14:51:06;;;;;;;6.95;6.07;;;;;;;;;;4922385;28;20249;-93
2022/07/21 14:53:32;;;;;;;6.38;5.97;;;;;;;;;;4921736;28;20941;-93
2022/07/21 14:55:58;;;;;;;6.80;6.40;;;;;;;;;;4920736;28;20186;-94
2022/07/21 14:58:24;;;;;;;6.88;6.35;;;;;;;;;;4943112;28;20681;-93
2022/07/21 15:00:50;;;;;;;7.60;7.00;;;;;;;;;;4920876;28;20661;-93
2022/07/21 15:03:16;;;;;;;6.10;5.70;;;;;;;;;;4922808;28;20186;-90
2022/07/21 15:05:42;;;;;;;6.40;5.97;;;;;;;;;;4924989;28;20189;-90
2022/07/21 15:08:08;;;;;;;7.30;6.60;;;;;;;;;;4936165;28;20187;-91
2022/07/21 15:10:34;;;;;;;7.28;6.78;;;;;;;;;;4925305;28;20518;-92
2022/07/21 15:13:00;;;;;;;6.68;6.07;;;;;;;;;;4951031;28;20489;-91
2022/07/21 15:15:27;;;;;;;6.38;5.97;;;;;;;;;;4931946;28;20243;-92
2022/07/21 15:17:52;;;;;;;6.70;6.20;;;39.60;72.50;;;;;;4927896;28;20206;-94
2022/07/21 15:20:20;;;;;;;7.03;6.53;;;39.30;66.10;;;;;;4925218;28;20214;-94
2022/07/21 15:22:45;;;;;;;7.67;6.97;;;35.20;54.80;;;;;;4927651;28;21155;-92
2022/07/21 15:25:11;;;;;;;6.20;5.80;;;33.10;55.90;;;;;;4927148;28;20450;-94
2022/07/21 15:27:38;;;;;;;6.50;6.10;;;32.40;57.40;;;;;;4929329;28;20185;-91
2022/07/21 15:30:06;;;;;;;7.00;6.50;;;32.10;57.90;;;;;;4929337;28;20360;-92
2022/07/21 15:32:32;;;;;;;6.80;6.30;;;31.90;57.90;;;;;;4925522;28;20464;-91
2022/07/21 15:34:57;;;;;;;7.50;6.90;;;31.60;58.50;;;;;;4921306;28;20454;-91
2022/07/21 15:37:23;;;;;;;7.13;6.23;;;32.60;59.30;;;;;;4924425;28;20190;-91
2022/07/21 15:39:48;;;;;;;7.50;7.00;;;33.10;59.20;;;;;;4922823;28;20186;-90
2022/07/21 15:42:14;;;;;;;7.13;6.63;;;33.90;59.40;;;;;;4927400;28;20206;-92
2022/07/21 15:44:39;;;;;;;7.20;6.70;;;34.20;60.20;;;;;;4937502;28;20648;-92
2022/07/21 15:47:06;;;;;;;7.40;6.80;;;;;;;;;;4928425;28;20622;-93
2022/07/21 15:49:32;;;;;;;7.07;6.47;;;;;;;;;;4922290;28;20194;-92
2022/07/21 15:52:00;;;;;;;7.30;6.70;;;;;;;;;;4923720;28;20206;-92
2022/07/21 15:54:26;;;;;;;5.97;5.60;;;36.20;84.80;;;;;;4922597;28;20434;-92
2022/07/21 15:56:51;;;;;;;6.80;6.30;;;34.50;61.00;;;;;;4951656;28;21095;-92
2022/07/21 15:59:36;;;;;;;6.23;5.83;;;33.40;62.10;;;;;;4923119;28;21374;-91
2022/07/21 16:02:10;;;;;;;6.83;6.33;;;33.30;62.80;;;;;;4920153;28;20202;-92
2022/07/21 16:04:37;;;;;;;6.17;5.77;;;32.00;58.80;;;;;;4922220;28;20462;-91
2022/07/21 16:07:03;;;;;;;6.80;6.20;;;31.40;58.50;;;;;;4921802;28;21008;-91
2022/07/21 16:09:31;;;;;;;6.53;6.03;;;30.80;58.10;;;;;;4942148;28;20972;-91
2022/07/21 16:11:57;;;;;;;6.20;5.80;;;30.90;60.10;;;;;;4916391;28;20451;-92
2022/07/21 16:14:23;;;;;;;6.40;6.00;;;31.60;59.00;;;;;;4925167;28;20449;-91
2022/07/21 16:16:51;;;;;;;6.13;5.73;;;31.70;59.20;;;;;;4920667;28;20198;-91
2022/07/21 16:19:18;;;;;;;7.30;6.80;;;31.70;59.20;;;;;;4926250;28;20449;-91
2022/07/21 16:21:43;;;;;;;6.83;6.40;;;31.50;59.80;;;;;;4926688;28;20458;-92
2022/07/21 16:24:09;;;;;;;6.50;5.93;;;31.10;60.80;;;;;;4934470;28;20466;-93
2022/07/21 16:26:34;;;;;;;6.30;5.90;;;31.30;62.10;;;;;;4913370;28;20684;-92
2022/07/21 16:29:00;;;;;;;7.13;6.47;;;;;;;;;;4926846;28;21317;-90
2022/07/21 16:31:26;;;;;;;5.93;5.60;;;;;;;;;;4917634;28;20689;-91
2022/07/21 16:33:52;;;;;;;6.57;5.97;;;;;;;;;;4950161;28;20411;-93
2022/07/21 16:36:18;;;;;;;6.60;6.20;;;37.40;85.50;;;;;;4915752;28;20542;-91
2022/07/21 16:38:43;;;;;;;6.50;6.10;;;36.10;56.80;;;;;;4929924;28;20187;-91
2022/07/21 16:41:09;;;;;;;6.00;5.60;;;34.00;59.30;;;;;;4933389;28;20246;-91
2022/07/21 16:43:35;;;;;;;6.97;6.43;;;33.10;63.60;;;;;;4937963;28;20631;-91
2022/07/21 16:46:03;;;;;;;6.30;5.77;;;32.30;67.40;;;;;;4920830;28;20214;-92
2022/07/21 16:48:29;;;;;;;6.50;5.90;;;31.60;67.00;;;;;;4917572;28;20253;-93
2022/07/21 16:50:57;;;;;;;6.80;6.40;;;31.30;68.20;;;;;;4922821;28;20798;-93
2022/07/21 16:53:23;;;;;;;6.73;6.10;;;30.80;66.00;;;;;;4923536;28;20340;-93
2022/07/21 16:55:48;;;;;;;6.10;5.70;;;31.40;67.00;;;;;;4917651;28;20489;-92
2022/07/21 16:58:14;;;;;;;6.90;6.40;;;32.70;66.80;;;;;;4920680;28;21228;-92
2022/07/21 17:00:39;;;;;;;5.73;5.33;;;;;;;;;;4932052;28;20190;-91
2022/07/21 17:03:06;;;;;;;6.20;5.70;;;;;;;;;;4920129;28;20190;-91
2022/07/21 17:05:32;;;;;;;5.80;5.40;;;;;;;;;;4922741;28;20237;-93
2022/07/21 17:07:58;;;;;;;6.47;5.87;;;;;;;;;;4919395;28;20186;-92
2022/07/21 17:10:24;;;;;;;5.40;5.10;;;;;;;;;;4915422;28;20797;-91
2022/07/21 17:12:50;;;;;;;6.27;5.77;;;;;;;;;;4924268;28;20948;-92
2022/07/21 17:15:16;;;;;;;5.88;5.45;;;;;;;;;;4925177;28;20194;-92
2022/07/21 17:17:43;;;;;;;5.43;5.03;;;;;;;;;;4918884;28;20190;-92
2022/07/21 17:20:09;;;;;;;5.50;5.00;;;;;;;;;;4921332;28;20206;-92
2022/07/21 17:22:35;;;;;;;5.25;4.95;;;;;;;;;;4921859;28;20769;-92
2022/07/21 17:25:02;;;;;;;5.10;4.80;;;;;;;;;;4916248;28;20183;-93
2022/07/21 17:27:28;;;;;;;5.45;4.95;;;;;;;;;;4921216;28;20209;-93
2022/07/21 17:29:54;;;;;;;5.57;5.13;;;;;;;;;;4919292;28;20676;-92
2022/07/21 17:32:22;;;;;;;5.85;5.40;;;39.80;81.30;;;;;;4916399;28;20198;-92
2022/07/21 17:34:48;;;;;;;5.77;5.37;;;38.80;58.60;;;;;;4923556;28;20293;-93
2022/07/21 17:37:13;;;;;;;5.83;5.43;;;34.80;54.90;;;;;;4915421;28;20663;-93
2022/07/21 17:39:40;;;;;;;6.57;6.07;;;31.70;57.90;;;;;;4921925;28;20812;-94
2022/07/21 17:42:06;;;;;;;5.60;5.20;;;29.90;59.90;;;;;;4918532;28;20341;-93
2022/07/21 17:44:32;;;;;;;6.87;6.30;;;28.80;63.10;;;;;;4918773;28;20595;-96
2022/07/21 17:46:57;;;;;;;6.20;5.70;;;28.00;67.50;;;;;;4936041;28;20195;-94
2022/07/21 17:49:23;;;;;;;6.23;5.77;;;27.60;68.90;;;;;;4921668;28;20198;-92
2022/07/21 17:51:48;;;;;;;6.40;6.00;;;27.60;70.80;;;;;;4924813;28;20215;-92
2022/07/21 17:54:14;;;;;;;6.80;6.30;;;27.00;75.10;;;;;;4926704;28;20370;-92
2022/07/21 17:56:39;;;;;;;6.73;6.20;;;26.60;75.80;;;;;;4924137;28;20225;-92
2022/07/21 17:59:05;;;;;;;6.10;5.70;;;26.20;75.10;;;;;;4928454;28;20274;-91
2022/07/21 18:01:30;;;;;;;6.43;6.03;;;26.30;82.00;;;;;;4939781;28;20512;-91
2022/07/21 18:03:58;;;;;;;6.53;6.13;;;25.90;90.30;;;;;;4928479;28;20662;-91
2022/07/21 18:06:24;;;;;;;6.73;5.90;;;25.80;93.00;;;;;;4928664;28;21291;-91
2022/07/21 18:08:50;;;;;;;7.00;6.60;;;25.80;94.20;;;;;;4937503;28;21133;-91
2022/07/21 18:11:16;;;;;;;6.57;6.10;;;25.70;94.10;;;;;;4931386;28;20865;-91
2022/07/21 18:13:42;;;;;;;7.13;6.43;;;26.00;91.50;;;;;;4933820;28;20435;-91
2022/07/21 18:16:08;;;;;;;6.27;5.70;;;26.60;90.30;;;;;;4933224;28;20445;-91
2022/07/21 18:18:34;;;;;;;6.27;5.87;;;27.60;91.30;;;;;;4942898;28;20183;-91
2022/07/21 18:21:00;;;;;;;6.57;6.17;;;28.00;89.70;;;;;;4929578;28;20461;-90
2022/07/21 18:23:29;;;;;;;6.53;6.03;;;27.70;83.70;;;;;;4934496;28;20443;-91
2022/07/21 18:25:55;;;;;;;7.43;6.20;;;27.40;84.90;;;;;;4925344;28;21039;-91
2022/07/21 18:28:20;;;;;;;6.07;5.67;;;26.90;83.10;;;;;;4929926;28;20206;-92
2022/07/21 18:30:49;;;;;;;6.40;5.90;;;26.80;86.40;;;;;;4931822;28;20210;-91
2022/07/21 18:33:15;;;;;;;5.90;5.50;;;26.50;86.40;;;;;;4936196;28;20202;-91
2022/07/21 18:35:42;;;;;;;7.27;6.67;;;26.20;88.10;;;;;;4927846;28;20526;-91
2022/07/21 18:38:11;;;;;;;6.87;6.37;;;26.20;90.30;;;;;;4928032;28;20438;-91
2022/07/21 18:40:37;;;;;;;6.50;5.90;;;26.00;93.80;;;;;;4943562;28;21035;-92
2022/07/21 18:43:04;;;;;;;6.80;6.30;;;25.60;97.10;;;;;;4933857;28;20499;-92
2022/07/21 18:45:31;;;;;;;8.00;7.40;;;25.50;99.00;;;;;;4931212;28;20541;-90
2022/07/21 18:47:57;;;;;;;7.60;7.00;;;25.40;99.20;;;;;;4933487;28;20521;-91
2022/07/21 18:50:22;;;;;;;7.17;6.67;;;24.80;99.40;;;;;;4932087;28;20482;-90
2022/07/21 18:52:49;;;;;;;6.80;6.20;;;24.60;99.90;;;;;;4929410;28;20677;-90
2022/07/21 18:55:14;;;;;;;7.30;6.70;;;24.30;99.90;;;;;;4933774;28;20678;-91
2022/07/21 18:57:40;;;;;;;6.87;6.23;;;24.20;99.90;;;;;;4932692;28;20442;-91
2022/07/21 19:00:09;;;;;;;7.00;6.30;;;24.10;99.90;;;;;;4932359;28;20245;-91
2022/07/21 19:02:36;;;;;;;7.40;6.47;;;24.00;99.90;;;;;;4932855;28;20210;-91
2022/07/21 19:05:07;;;;;;;7.07;6.43;;;23.90;99.90;;;;;;4938367;28;20514;-91
2022/07/21 19:07:36;;;;;;;7.30;6.63;;;23.70;99.90;;;;;;4929214;28;20472;-91
2022/07/21 19:10:01;;;;;;;9.73;7.47;;;23.60;99.90;;;;;;4931723;28;20548;-91
2022/07/21 19:12:29;;;;;;;7.30;6.70;;;23.40;99.90;;;;;;4931275;28;20199;-91
2022/07/21 19:14:57;;;;;;;7.17;6.57;;;23.10;99.90;;;;;;4935256;28;20443;-91
2022/07/21 19:17:23;;;;;;;7.37;6.77;;;23.10;99.90;;;;;;4930511;28;20190;-91
2022/07/21 19:19:48;;;;;;;6.97;6.47;;;23.10;99.90;;;;;;4939156;28;20446;-91
2022/07/21 19:22:14;;;;;;;7.60;7.00;;;23.00;99.90;;;;;;4932256;28;20199;-92
2022/07/21 19:24:39;;;;;;;6.70;6.03;;;22.80;99.90;;;;;;4931501;28;20287;-93
2022/07/21 19:27:05;;;;;;;6.70;6.20;;;22.60;99.90;;;;;;4942360;28;20693;-91
2022/07/21 19:29:30;;;;;;;7.50;6.93;;;23.00;99.90;;;;;;4931972;28;20186;-94
2022/07/21 19:31:56;;;;;;;7.10;6.50;;;22.60;99.90;;;;;;4931700;28;20215;-91
2022/07/21 19:34:24;;;;;;;12.27;7.13;;;22.60;99.90;;;;;;4938430;28;20289;-91
2022/07/21 19:36:50;;;;;;;6.53;6.03;;;22.60;99.90;;;;;;4929016;28;20263;-90
2022/07/21 19:39:18;;;;;;;6.20;5.77;;;22.50;99.90;;;;;;4929502;28;20454;-91
2022/07/21 19:41:44;;;;;;;7.07;6.47;;;22.40;99.90;;;;;;4930039;28;20474;-90
2022/07/21 19:44:12;;;;;;;7.43;6.90;;;22.40;99.90;;;;;;4929977;28;20702;-92
2022/07/21 19:46:41;;;;;;;7.20;6.70;;;22.30;99.90;;;;;;4932216;28;20455;-90
2022/07/21 19:49:06;;;;;;;6.83;6.10;;;22.30;99.90;;;;;;4931903;28;21415;-92
2022/07/21 19:51:32;;;;;;;7.37;6.63;;;22.20;99.90;;;;;;4934063;28;20543;-91
2022/07/21 19:53:58;;;;;;;7.20;6.60;;;22.20;99.90;;;;;;4931227;28;22944;-91
2022/07/21 19:56:23;;;;;;;7.33;6.73;;;22.10;99.90;;;;;;4927632;28;20532;-90
2022/07/21 19:58:49;;;;;;;7.07;6.47;;;22.00;99.90;;;;;;4931090;28;20179;-90
2022/07/21 20:01:15;;;;;;;7.60;7.00;;;22.00;99.90;;;;;;4931153;28;20187;-91
2022/07/21 20:03:41;;;;;;;7.23;6.53;;;22.00;99.90;;;;;;4933359;28;20195;-92
2022/07/21 20:06:07;;;;;;;7.23;6.53;;;21.80;99.90;;;;;;4935810;28;20211;-90
2022/07/21 20:08:33;;;;;;;7.17;6.47;;;21.80;99.90;;;;;;4936424;28;20442;-91
2022/07/21 20:10:59;;;;;;;7.17;6.47;;;21.70;99.90;;;;;;4942504;28;20215;-91
2022/07/21 20:13:25;;;;;;;6.80;6.30;;;21.70;99.90;;;;;;4941188;28;20549;-91
2022/07/21 20:15:53;;;;;;;5.87;5.47;;;21.60;99.90;;;;;;4942585;28;20188;-90
2022/07/21 20:18:19;;;;;;;6.67;6.17;;;21.50;99.90;;;;;;4943122;28;20491;-91
2022/07/21 20:20:44;;;;;;;7.00;6.30;;;21.50;99.90;;;;;;4943912;28;20434;-91
2022/07/21 20:23:11;;;;;;;6.50;5.90;;;21.40;99.90;;;;;;4932960;28;20183;-93
2022/07/21 20:25:36;;;;;;;7.37;6.87;;;21.40;99.90;;;;;;4931350;28;20213;-91
2022/07/21 20:28:04;;;;;;;6.63;6.10;;;21.30;99.90;;;;;;4930483;28;20435;-92
2022/07/21 20:30:31;;;;;;;6.77;5.80;;;21.40;99.90;;;;;;4918322;28;20490;-91
2022/07/21 20:36:24;;;;;;;7.93;7.33;;;21.40;99.90;;;;;;4943596;28;20445;-93
2022/07/21 20:38:50;;;;;;;7.20;6.70;;;21.30;99.90;;;;;;4928877;28;20446;-91
2022/07/21 20:41:16;;;;;;;6.60;6.10;;;21.30;99.90;;;;;;4934074;28;20553;-94
2022/07/21 20:43:41;;;;;;;8.90;8.03;;;21.30;99.90;;;;;;4911692;28;20197;-91
2022/07/21 20:46:08;;;;;;;8.80;8.00;;;21.20;99.90;;;;;;4950610;28;20278;-89
2022/07/21 20:48:35;;;;;;;8.33;7.77;;;21.20;99.90;;;;;;4925729;28;20680;-89
2022/07/21 20:51:10;;;;;;;8.10;7.40;;;21.20;99.90;;;;;;4925157;28;20508;-89
2022/07/21 20:53:38;;;;;;;7.80;7.10;;;21.10;99.90;;;;;;4952137;28;20445;-91
2022/07/21 20:56:03;;;;;;;7.77;7.10;;;21.10;99.90;;;;;;4920489;28;20431;-89
2022/07/21 20:58:29;;;;;;;6.67;6.07;;;21.20;99.90;;;;;;4915121;28;20533;-89
2022/07/21 21:01:02;;;;;;;6.80;6.30;;;21.00;99.90;;;;;;4918370;28;20202;-89
2022/07/21 21:03:28;;;;;;;6.90;6.40;;;21.40;99.90;;;;;;4928567;28;20195;-89
2022/07/21 21:05:54;;;;;;;7.53;6.83;;;21.00;99.90;;;;;;4910807;29;20518;-89
2022/07/21 21:08:20;;;;;;;7.13;6.63;;;20.90;99.90;;;;;;4929553;28;20459;-89
2022/07/21 21:10:46;;;;;;;7.63;7.00;;;20.90;99.90;;;;;;4943743;28;20231;-89
2022/07/21 21:13:11;;;;;;;6.97;6.37;;;20.90;99.90;;;;;;4917070;28;20269;-88
2022/07/21 21:15:37;;;;;;;6.70;6.30;;;20.90;99.90;;;;;;4926401;28;20237;-88
2022/07/21 21:18:03;;;;;;;6.63;6.13;;;20.70;99.90;;;;;;4920170;28;20320;-89
2022/07/21 21:20:40;;;;;;;7.07;6.57;;;20.70;99.90;;;;;;4922787;28;20642;-89
2022/07/21 21:23:06;;;;;;;7.53;6.87;;;20.40;99.90;;;;;;4930995;28;22148;-88
2022/07/21 21:25:33;;;;;;;7.43;6.53;;;20.70;99.90;;;;;;4918744;28;20446;-88
2022/07/21 21:28:09;;;;;;;7.00;6.50;;;20.70;99.90;;;;;;4913303;28;20598;-92
2022/07/21 21:30:36;;;;;;;6.70;6.10;;;20.70;99.90;;;;;;4928494;28;20529;-92
2022/07/21 21:33:03;;;;;;;7.53;6.97;;;20.70;99.90;;;;;;4903458;28;20451;-91